createdAt,value
2023-12-27T00:00:57.126Z,51.49
2023-12-27T00:03:23.996Z,51.87
2023-12-27T00:05:50.781Z,52.29
2023-12-27T00:08:17.518Z,52.52
2023-12-27T00:10:44.271Z,52.85
2023-12-27T00:13:12.631Z,53.41
2023-12-27T00:15:39.397Z,53.96
2023-12-27T00:18:06.393Z,54.09
2023-12-27T00:20:33.212Z,54.09
2023-12-27T00:22:59.966Z,53.80
2023-12-27T00:25:26.668Z,53.85
2023-12-27T00:27:55.740Z,53.76
2023-12-27T00:30:24.091Z,53.91
2023-12-27T00:32:51.209Z,54.40
2023-12-27T00:35:17.990Z,55.20
2023-12-27T00:37:44.896Z,55.03
2023-12-27T00:40:12.731Z,54.79
2023-12-27T00:42:39.566Z,54.98
2023-12-27T00:45:07.066Z,54.45
2023-12-27T00:47:35.239Z,53.89
2023-12-27T00:50:02.145Z,54.13
2023-12-27T00:52:29.003Z,53.64
2023-12-27T00:54:55.716Z,53.01
2023-12-27T00:57:22.517Z,53.17
2023-12-27T00:59:49.333Z,53.09
2023-12-27T01:02:16.054Z,53.27
2023-12-27T01:04:44.170Z,53.09
2023-12-27T01:07:10.902Z,53.70
2023-12-27T01:09:37.663Z,53.90
2023-12-27T01:12:04.888Z,54.32
2023-12-27T01:14:31.647Z,54.43
2023-12-27T01:16:58.332Z,54.69
2023-12-27T01:19:25.193Z,54.52
2023-12-27T01:21:53.673Z,54.47
2023-12-27T01:24:20.420Z,54.54
2023-12-27T01:26:47.166Z,54.11
2023-12-27T01:29:15.416Z,53.93
2023-12-27T01:31:42.171Z,53.98
2023-12-27T01:34:15.641Z,53.46
2023-12-27T01:36:46.330Z,53.93
2023-12-27T01:39:14.437Z,54.06
2023-12-27T01:41:41.210Z,54.00
2023-12-27T01:44:07.913Z,53.96
2023-12-27T01:46:35.444Z,54.48
2023-12-27T01:49:02.344Z,54.27
2023-12-27T01:51:29.148Z,54.85
2023-12-27T01:53:56.493Z,54.79
2023-12-27T01:56:24.555Z,54.61
2023-12-27T01:58:51.299Z,54.77
2023-12-27T02:01:18.148Z,54.52
2023-12-27T02:03:44.996Z,54.51
2023-12-27T02:06:11.919Z,54.21
2023-12-27T02:08:38.833Z,54.51
2023-12-27T02:11:06.126Z,54.43
2023-12-27T02:13:35.247Z,54.05
2023-12-27T02:16:01.969Z,54.76
2023-12-27T02:18:29.115Z,54.50
2023-12-27T02:20:56.043Z,54.71
2023-12-27T02:23:22.824Z,54.65
2023-12-27T02:25:51.582Z,54.70
2023-12-27T02:28:18.426Z,54.12
2023-12-27T02:30:45.380Z,54.39
2023-12-27T02:33:12.416Z,54.87
2023-12-27T02:35:39.273Z,55.40
2023-12-27T02:38:06.055Z,55.49
2023-12-27T02:40:32.786Z,55.08
2023-12-27T02:43:00.991Z,54.96
2023-12-27T02:45:27.809Z,54.94
2023-12-27T02:47:54.976Z,54.87
2023-12-27T02:50:21.961Z,54.89
2023-12-27T02:52:48.639Z,54.93
2023-12-27T02:55:15.455Z,54.43
2023-12-27T02:57:42.202Z,54.39
2023-12-27T03:00:11.661Z,54.24
2023-12-27T03:02:38.435Z,54.24
2023-12-27T03:05:05.755Z,53.88
2023-12-27T03:07:32.535Z,54.34
2023-12-27T03:09:59.234Z,55.12
2023-12-27T03:12:26.045Z,55.29
2023-12-27T03:14:52.766Z,55.12
2023-12-27T03:17:20.916Z,54.71
2023-12-27T03:19:47.601Z,54.88
2023-12-27T03:22:15.121Z,54.84
2023-12-27T03:24:41.882Z,55.02
2023-12-27T03:27:08.634Z,55.26
2023-12-27T03:29:35.560Z,56.07
2023-12-27T03:32:02.228Z,57.51
2023-12-27T03:34:30.433Z,56.60
2023-12-27T03:36:57.219Z,56.58
2023-12-27T03:39:23.997Z,56.13
2023-12-27T03:41:50.816Z,56.84
2023-12-27T03:44:17.526Z,56.38
2023-12-27T03:46:44.806Z,55.87
2023-12-27T03:49:11.664Z,55.79
2023-12-27T03:51:39.874Z,56.13
2023-12-27T03:54:06.640Z,55.90
2023-12-27T03:56:33.374Z,55.45
2023-12-27T03:59:00.186Z,54.84
2023-12-27T04:01:26.971Z,55.72
2023-12-27T04:03:53.734Z,55.31
2023-12-27T04:06:20.551Z,55.49
2023-12-27T04:08:48.919Z,56.83
2023-12-27T04:11:15.637Z,56.60
2023-12-27T04:13:42.467Z,56.26
2023-12-27T04:16:09.218Z,56.08
2023-12-27T04:18:36.020Z,55.93
2023-12-27T04:21:03.035Z,56.57
2023-12-27T04:23:29.776Z,55.49
2023-12-27T04:25:57.814Z,55.71
2023-12-27T04:28:24.498Z,55.40
2023-12-27T04:30:51.357Z,55.81
2023-12-27T04:33:18.260Z,56.58
2023-12-27T04:35:45.130Z,56.08
2023-12-27T04:38:11.913Z,55.74
2023-12-27T04:40:38.645Z,55.57
2023-12-27T04:43:06.779Z,55.88
2023-12-27T04:45:33.544Z,56.45
2023-12-27T04:48:00.681Z,56.12
2023-12-27T04:50:27.884Z,55.65
2023-12-27T04:52:54.689Z,56.21
2023-12-27T04:55:21.436Z,55.99
2023-12-27T04:57:48.670Z,55.94
2023-12-27T05:00:17.179Z,56.05
2023-12-27T05:02:43.908Z,56.08
2023-12-27T05:05:10.661Z,55.89
2023-12-27T05:07:37.369Z,55.10
2023-12-27T05:10:04.718Z,55.30
2023-12-27T05:12:32.157Z,55.70
2023-12-27T05:14:59.021Z,55.72
2023-12-27T05:17:27.208Z,55.25
2023-12-27T05:19:54.139Z,55.89
2023-12-27T05:22:20.852Z,55.22
2023-12-27T05:24:47.676Z,55.81
2023-12-27T05:27:14.392Z,55.94
2023-12-27T05:29:41.137Z,55.71
2023-12-27T05:32:07.805Z,55.50
2023-12-27T05:34:35.922Z,55.59
2023-12-27T05:37:02.729Z,55.43
2023-12-27T05:39:29.436Z,55.71
2023-12-27T05:41:56.253Z,55.72
2023-12-27T05:44:22.968Z,56.05
2023-12-27T05:46:49.733Z,56.17
2023-12-27T05:49:16.505Z,55.96
2023-12-27T05:51:44.647Z,55.84
2023-12-27T05:54:11.429Z,56.46
2023-12-27T05:56:38.136Z,56.34
2023-12-27T05:59:04.842Z,56.38
2023-12-27T06:01:31.593Z,56.34
2023-12-27T06:03:58.348Z,56.86
2023-12-27T06:06:26.174Z,57.10
2023-12-27T06:08:54.225Z,56.94
2023-12-27T06:11:20.921Z,56.77
2023-12-27T06:13:48.460Z,56.62
2023-12-27T06:16:15.417Z,56.74
2023-12-27T06:18:42.306Z,56.42
2023-12-27T06:21:09.216Z,56.71
2023-12-27T06:23:35.896Z,57.56
2023-12-27T06:26:04.263Z,57.67
2023-12-27T06:28:30.991Z,57.60
2023-12-27T06:30:57.854Z,56.83
2023-12-27T06:33:24.768Z,56.95
2023-12-27T06:35:51.656Z,56.23
2023-12-27T06:38:18.399Z,55.91
2023-12-27T06:40:45.163Z,56.89
2023-12-27T06:43:13.315Z,56.56
2023-12-27T06:45:40.138Z,56.67
2023-12-27T06:48:07.512Z,57.58
2023-12-27T06:50:34.302Z,57.33
2023-12-27T06:53:01.118Z,57.17
2023-12-27T06:55:27.807Z,56.77
2023-12-27T06:57:54.602Z,57.34
2023-12-27T07:00:22.936Z,56.96
2023-12-27T07:02:49.813Z,57.02
2023-12-27T07:05:16.711Z,59.46
2023-12-27T07:07:43.452Z,58.41
2023-12-27T07:10:12.830Z,58.20
2023-12-27T07:12:40.324Z,57.88
2023-12-27T07:15:08.036Z,58.55
2023-12-27T07:17:36.169Z,58.05
2023-12-27T07:20:03.141Z,58.21
2023-12-27T07:22:31.768Z,57.68
2023-12-27T07:24:58.654Z,58.34
2023-12-27T07:27:25.475Z,58.59
2023-12-27T07:29:54.857Z,59.05
2023-12-27T07:32:22.981Z,58.96
2023-12-27T07:34:51.085Z,57.81
2023-12-27T07:37:17.850Z,58.03
2023-12-27T07:39:44.570Z,57.43
2023-12-27T07:42:11.394Z,57.67
2023-12-27T07:44:38.101Z,57.88
2023-12-27T07:47:04.857Z,57.68
2023-12-27T07:49:31.694Z,58.36
2023-12-27T07:51:59.843Z,57.44
2023-12-27T07:54:26.638Z,57.28
2023-12-27T07:56:53.416Z,57.20
2023-12-27T07:59:20.116Z,57.53
2023-12-27T08:01:46.868Z,57.05
2023-12-27T08:04:13.788Z,56.63
2023-12-27T08:06:40.694Z,56.48
2023-12-27T08:09:08.780Z,57.05
2023-12-27T08:11:35.565Z,57.04
2023-12-27T08:14:02.391Z,56.48
2023-12-27T08:16:29.144Z,56.99
2023-12-27T08:18:55.945Z,56.68
2023-12-27T08:21:22.823Z,56.92
2023-12-27T08:23:49.610Z,57.04
2023-12-27T08:26:17.646Z,56.52
2023-12-27T08:28:44.361Z,56.89
2023-12-27T08:31:11.202Z,57.33
2023-12-27T08:33:38.201Z,57.44
2023-12-27T08:36:05.742Z,57.24
2023-12-27T08:38:32.745Z,57.81
2023-12-27T08:40:59.591Z,58.26
2023-12-27T08:43:27.662Z,57.73
2023-12-27T08:45:54.508Z,58.16
2023-12-27T08:48:21.304Z,57.30
2023-12-27T08:50:48.193Z,56.82
2023-12-27T08:53:14.924Z,57.04
2023-12-27T08:55:41.640Z,56.76
2023-12-27T08:58:08.366Z,57.51
2023-12-27T09:00:36.487Z,56.80
2023-12-27T09:03:03.630Z,56.60
2023-12-27T09:05:30.553Z,56.59
2023-12-27T09:08:03.681Z,56.71
2023-12-27T09:10:37.644Z,56.71
2023-12-27T09:13:04.390Z,56.84
2023-12-27T09:15:31.189Z,56.82
2023-12-27T09:17:59.603Z,56.26
2023-12-27T09:20:26.533Z,56.24
2023-12-27T09:22:53.315Z,56.12
2023-12-27T09:25:20.228Z,56.08
2023-12-27T09:27:47.531Z,56.96
2023-12-27T09:30:14.584Z,57.23
2023-12-27T09:32:41.851Z,56.89
2023-12-27T09:35:10.071Z,56.72
2023-12-27T09:37:36.794Z,56.46
2023-12-27T09:40:03.920Z,55.97
2023-12-27T09:42:30.785Z,56.46
2023-12-27T09:44:57.571Z,56.45
2023-12-27T09:47:24.284Z,56.13
2023-12-27T09:49:51.573Z,57.78
2023-12-27T09:52:19.702Z,58.23
2023-12-27T09:54:46.402Z,57.36
2023-12-27T09:57:13.154Z,56.66
2023-12-27T09:59:41.410Z,56.72
2023-12-27T10:02:12.046Z,56.64
2023-12-27T10:04:43.239Z,56.22
2023-12-27T10:07:09.999Z,55.92
2023-12-27T10:09:38.200Z,55.62
2023-12-27T10:12:05.393Z,55.82
2023-12-27T10:14:32.379Z,55.39
2023-12-27T10:16:59.145Z,55.99
2023-12-27T10:19:37.123Z,56.35
2023-12-27T10:22:04.364Z,56.15
2023-12-27T10:24:31.108Z,55.72
2023-12-27T10:26:59.410Z,56.24
2023-12-27T10:29:26.120Z,56.49
2023-12-27T10:31:52.922Z,55.88
2023-12-27T10:34:20.322Z,56.45
2023-12-27T10:36:47.103Z,56.40
2023-12-27T10:39:16.557Z,56.53
2023-12-27T10:41:43.706Z,56.12
2023-12-27T10:44:11.778Z,56.73
2023-12-27T10:46:38.731Z,56.39
2023-12-27T10:49:05.594Z,56.14
2023-12-27T10:51:32.598Z,56.50
2023-12-27T10:53:59.726Z,57.34
2023-12-27T10:56:26.618Z,56.66
2023-12-27T10:58:54.146Z,55.47
2023-12-27T11:01:24.660Z,56.42
2023-12-27T11:03:51.679Z,55.55
2023-12-27T11:06:18.611Z,55.97
2023-12-27T11:08:45.542Z,56.16
2023-12-27T11:11:12.308Z,55.65
2023-12-27T11:13:39.037Z,55.35
2023-12-27T11:16:06.272Z,55.06
2023-12-27T11:18:34.766Z,54.36
2023-12-27T11:21:01.598Z,54.66
2023-12-27T11:23:28.432Z,54.25
2023-12-27T11:25:55.727Z,54.29
2023-12-27T11:28:22.489Z,54.18
2023-12-27T11:30:49.280Z,53.90
2023-12-27T11:33:19.933Z,54.08
2023-12-27T11:35:48.147Z,54.39
2023-12-27T11:38:15.253Z,53.84
2023-12-27T11:40:42.184Z,53.43
2023-12-27T11:43:08.920Z,53.70
2023-12-27T11:45:55.911Z,53.04
2023-12-27T11:48:22.820Z,53.82
2023-12-27T11:50:51.089Z,53.99
2023-12-27T11:53:17.819Z,54.19
2023-12-27T11:55:44.624Z,52.83
2023-12-27T11:58:11.328Z,53.01
2023-12-27T12:00:38.322Z,52.77
2023-12-27T12:03:14.304Z,53.62
2023-12-27T12:05:48.824Z,53.86
2023-12-27T12:08:18.631Z,53.44
2023-12-27T12:10:45.457Z,52.46
2023-12-27T12:13:12.177Z,51.81
2023-12-27T12:15:38.971Z,51.82
2023-12-27T12:18:05.979Z,51.78
2023-12-27T12:20:32.816Z,51.29
2023-12-27T12:22:59.755Z,51.34
2023-12-27T12:25:27.877Z,50.67
2023-12-27T12:27:54.805Z,50.86
2023-12-27T12:30:21.734Z,50.92
2023-12-27T12:32:48.525Z,51.18
2023-12-27T12:35:15.432Z,50.87
2023-12-27T12:37:42.155Z,50.78
2023-12-27T12:40:09.512Z,50.21
2023-12-27T12:42:37.723Z,50.02
2023-12-27T12:45:05.106Z,49.36
2023-12-27T12:47:32.409Z,50.47
2023-12-27T12:49:59.341Z,50.52
2023-12-27T12:52:26.289Z,49.91
2023-12-27T12:54:52.973Z,50.28
2023-12-27T12:57:19.706Z,49.96
2023-12-27T12:59:47.990Z,49.78
2023-12-27T13:02:16.368Z,50.01
2023-12-27T13:04:43.254Z,50.87
2023-12-27T13:07:10.978Z,49.80
2023-12-27T13:09:53.908Z,50.09
2023-12-27T13:12:20.824Z,49.33
2023-12-27T13:14:48.920Z,49.52
2023-12-27T13:17:15.700Z,49.65
2023-12-27T13:19:42.448Z,49.87
2023-12-27T13:22:09.326Z,49.74
2023-12-27T13:24:38.142Z,49.35
2023-12-27T13:27:06.464Z,49.61
2023-12-27T13:29:33.218Z,48.94
2023-12-27T13:32:01.252Z,49.25
2023-12-27T13:34:28.169Z,49.65
2023-12-27T13:36:55.107Z,50.11
2023-12-27T13:39:22.028Z,50.14
2023-12-27T13:41:48.810Z,49.22
2023-12-27T13:44:15.507Z,47.35
2023-12-27T13:46:42.197Z,47.85
2023-12-27T13:49:10.447Z,48.45
2023-12-27T13:51:37.580Z,47.09
2023-12-27T13:54:12.492Z,46.88
2023-12-27T13:56:44.850Z,46.54
2023-12-27T13:59:11.692Z,46.15
2023-12-27T14:01:38.559Z,45.87
2023-12-27T14:04:05.560Z,45.16
2023-12-27T14:06:36.559Z,45.39
2023-12-27T14:09:03.999Z,44.79
2023-12-27T14:11:30.709Z,45.25
2023-12-27T14:13:57.492Z,45.76
2023-12-27T14:16:26.853Z,44.34
2023-12-27T14:18:53.752Z,44.03
2023-12-27T14:21:20.750Z,43.42
2023-12-27T14:23:49.296Z,42.77
2023-12-27T14:26:16.028Z,43.10
2023-12-27T14:28:46.689Z,42.91
2023-12-27T14:31:16.544Z,42.57
2023-12-27T14:33:43.748Z,42.81
2023-12-27T14:36:10.648Z,42.46
2023-12-27T14:38:37.670Z,41.55
2023-12-27T14:41:05.875Z,43.45
2023-12-27T14:43:32.833Z,44.76
2023-12-27T14:46:00.932Z,45.28
2023-12-27T14:48:30.424Z,45.40
2023-12-27T14:50:57.172Z,45.77
2023-12-27T14:53:24.033Z,45.87
2023-12-27T14:55:50.747Z,46.35
2023-12-27T14:58:18.833Z,46.28
2023-12-27T15:00:46.213Z,47.28
2023-12-27T15:03:13.123Z,47.31
2023-12-27T15:05:39.934Z,46.70
2023-12-27T15:08:06.859Z,46.10
2023-12-27T15:10:33.592Z,46.75
2023-12-27T15:13:00.805Z,47.21
2023-12-27T15:15:29.052Z,46.68
2023-12-27T15:17:56.194Z,46.84
2023-12-27T15:20:23.081Z,47.62
2023-12-27T15:22:49.800Z,48.08
2023-12-27T15:25:16.528Z,48.52
2023-12-27T15:27:43.316Z,48.53
2023-12-27T15:30:11.623Z,49.02
2023-12-27T15:32:39.787Z,49.46
2023-12-27T15:35:07.732Z,48.02
2023-12-27T15:37:34.438Z,48.13
2023-12-27T15:40:01.191Z,48.58
2023-12-27T15:42:28.007Z,49.17
2023-12-27T15:44:54.739Z,48.96
2023-12-27T15:47:21.536Z,48.57
2023-12-27T15:49:49.734Z,48.98
2023-12-27T15:52:16.542Z,49.18
2023-12-27T15:54:43.333Z,49.25
2023-12-27T15:57:10.339Z,50.03
2023-12-27T15:59:37.284Z,50.17
2023-12-27T16:02:04.222Z,50.16
2023-12-27T16:04:31.123Z,49.97
2023-12-27T16:06:59.337Z,50.40
2023-12-27T16:09:26.080Z,50.78
2023-12-27T16:11:52.994Z,51.44
2023-12-27T16:14:19.882Z,51.51
2023-12-27T16:16:46.655Z,51.41
2023-12-27T16:19:13.652Z,51.28
2023-12-27T16:21:40.897Z,51.78
2023-12-27T16:24:10.133Z,51.70
2023-12-27T16:26:36.921Z,51.88
2023-12-27T16:29:03.863Z,51.32
2023-12-27T16:31:30.978Z,51.82
2023-12-27T16:34:01.046Z,52.02
2023-12-27T16:36:28.161Z,51.43
2023-12-27T16:38:55.062Z,51.76
2023-12-27T16:41:23.316Z,51.88
2023-12-27T16:43:50.115Z,52.07
2023-12-27T16:46:17.038Z,51.95
2023-12-27T16:48:44.141Z,51.93
2023-12-27T16:51:11.010Z,51.18
2023-12-27T16:53:37.841Z,52.22
2023-12-27T16:56:05.215Z,52.40
2023-12-27T16:58:33.434Z,51.73
2023-12-27T17:01:00.185Z,52.30
2023-12-27T17:03:27.174Z,52.49
2023-12-27T17:05:53.974Z,51.60
2023-12-27T17:08:20.740Z,52.35
2023-12-27T17:10:47.458Z,51.73
2023-12-27T17:13:16.622Z,51.97
2023-12-27T17:15:44.946Z,51.78
2023-12-27T17:18:11.901Z,51.56
2023-12-27T17:20:41.823Z,51.36
2023-12-27T17:23:08.644Z,51.74
2023-12-27T17:25:35.327Z,51.50
2023-12-27T17:28:02.544Z,50.76
2023-12-27T17:30:29.611Z,51.29
2023-12-27T17:32:58.060Z,51.71
2023-12-27T17:35:25.254Z,51.11
2023-12-27T17:37:52.097Z,51.70
2023-12-27T17:40:18.810Z,51.78
2023-12-27T17:42:45.637Z,51.76
2023-12-27T17:45:12.850Z,52.18
2023-12-27T17:47:39.810Z,53.20
2023-12-27T17:50:08.871Z,52.46
2023-12-27T17:52:35.629Z,52.49
2023-12-27T17:55:02.350Z,52.44
2023-12-27T17:57:31.837Z,52.81
2023-12-27T17:59:58.619Z,52.67
2023-12-27T18:02:25.359Z,52.27
2023-12-27T18:04:52.112Z,52.03
2023-12-27T18:07:20.131Z,51.58
2023-12-27T18:09:46.865Z,52.41
2023-12-27T18:12:13.620Z,52.41
2023-12-27T18:14:40.372Z,52.49
2023-12-27T18:17:09.582Z,51.41
2023-12-27T18:19:38.987Z,52.31
2023-12-27T18:22:05.736Z,51.57
2023-12-27T18:24:37.361Z,52.57
2023-12-27T18:27:04.602Z,53.42
2023-12-27T18:29:34.574Z,53.18
2023-12-27T18:32:02.427Z,53.31
2023-12-27T18:34:29.155Z,53.63
2023-12-27T18:36:55.968Z,53.78
2023-12-27T18:39:22.748Z,53.46
2023-12-27T18:41:50.806Z,54.46
2023-12-27T18:44:17.532Z,54.12
2023-12-27T18:46:44.305Z,53.82
2023-12-27T18:49:11.192Z,53.50
2023-12-27T18:51:38.015Z,54.22
2023-12-27T18:54:04.721Z,55.62
2023-12-27T18:56:31.463Z,55.19
2023-12-27T18:58:59.594Z,55.61
2023-12-27T19:01:26.316Z,55.95
2023-12-27T19:03:53.013Z,55.53
2023-12-27T19:06:19.779Z,56.09
2023-12-27T19:08:46.509Z,56.37
2023-12-27T19:11:13.242Z,56.86
2023-12-27T19:13:39.977Z,56.75
2023-12-27T19:16:08.251Z,56.01
2023-12-27T19:18:35.549Z,56.34
2023-12-27T19:21:02.387Z,56.15
2023-12-27T19:23:29.157Z,56.26
2023-12-27T19:25:55.913Z,57.77
2023-12-27T19:28:22.736Z,58.00
2023-12-27T19:30:49.557Z,59.07
2023-12-27T19:33:17.835Z,58.24
2023-12-27T19:35:44.826Z,57.47
2023-12-27T19:38:11.562Z,58.11
2023-12-27T19:40:38.315Z,58.42
2023-12-27T19:43:04.970Z,58.77
2023-12-27T19:45:31.803Z,58.71
2023-12-27T19:47:58.826Z,59.35
2023-12-27T19:50:27.218Z,58.61
2023-12-27T19:52:53.937Z,58.46
2023-12-27T19:55:20.697Z,58.90
2023-12-27T19:57:47.558Z,59.10
2023-12-27T20:00:14.739Z,58.73
2023-12-27T20:02:41.567Z,59.18
2023-12-27T20:05:08.882Z,58.45
2023-12-27T20:07:36.933Z,58.79
2023-12-27T20:10:03.754Z,59.27
2023-12-27T20:12:31.154Z,59.08
2023-12-27T20:14:59.391Z,58.14
2023-12-27T20:17:26.232Z,58.96
2023-12-27T20:19:53.225Z,59.05
2023-12-27T20:22:20.027Z,59.01
2023-12-27T20:24:48.229Z,61.93
2023-12-27T20:27:15.250Z,60.98
2023-12-27T20:29:42.099Z,61.41
2023-12-27T20:32:08.894Z,60.04
2023-12-27T20:34:35.800Z,59.54
2023-12-27T20:37:02.682Z,59.88
2023-12-27T20:39:29.519Z,58.83
2023-12-27T20:41:58.332Z,58.51
2023-12-27T20:44:25.469Z,57.87
2023-12-27T20:46:52.224Z,57.76
2023-12-27T20:49:19.081Z,56.83
2023-12-27T20:51:46.170Z,55.94
2023-12-27T20:54:13.054Z,56.12
2023-12-27T20:56:40.132Z,56.07
2023-12-27T20:59:09.754Z,54.76
2023-12-27T21:01:38.766Z,54.35
2023-12-27T21:04:05.672Z,54.57
2023-12-27T21:06:32.566Z,54.28
2023-12-27T21:08:59.723Z,54.76
2023-12-27T21:11:26.790Z,54.02
2023-12-27T21:13:53.510Z,56.32
2023-12-27T21:16:22.317Z,57.17
2023-12-27T21:18:49.212Z,56.72
2023-12-27T21:21:16.112Z,56.78
2023-12-27T21:23:42.877Z,57.27
2023-12-27T21:26:16.492Z,55.58
2023-12-27T21:28:44.053Z,55.70
2023-12-27T21:31:11.228Z,56.13
2023-12-27T21:33:39.497Z,55.19
2023-12-27T21:36:06.685Z,55.38
2023-12-27T21:38:33.438Z,55.56
2023-12-27T21:41:00.171Z,55.84
2023-12-27T21:43:27.049Z,56.76
2023-12-27T21:45:53.883Z,56.53
2023-12-27T21:48:20.704Z,56.20
2023-12-27T21:50:48.839Z,56.93
2023-12-27T21:53:15.695Z,55.80
2023-12-27T21:55:42.699Z,55.46
2023-12-27T21:58:09.396Z,55.02
2023-12-27T22:00:36.240Z,54.50
2023-12-27T22:03:03.292Z,54.75
2023-12-27T22:05:30.297Z,53.40
2023-12-27T22:08:07.336Z,52.96
2023-12-27T22:10:37.230Z,53.42
2023-12-27T22:13:04.345Z,53.29
2023-12-27T22:15:31.163Z,52.91
2023-12-27T22:17:58.184Z,52.84
2023-12-27T22:20:28.125Z,52.55
2023-12-27T22:22:54.908Z,52.29
2023-12-27T22:25:22.959Z,51.80
2023-12-27T22:27:49.761Z,52.54
2023-12-27T22:30:16.698Z,51.66
2023-12-27T22:32:43.538Z,52.25
2023-12-27T22:35:10.513Z,51.91
2023-12-27T22:37:37.251Z,52.32
2023-12-27T22:40:04.305Z,51.90
2023-12-27T22:42:32.541Z,51.80
2023-12-27T22:44:59.249Z,52.53
2023-12-27T22:47:26.113Z,51.92
2023-12-27T22:49:53.031Z,52.48
2023-12-27T22:52:19.925Z,52.92
2023-12-27T22:54:46.706Z,53.29
2023-12-27T22:57:13.466Z,53.11
2023-12-27T22:59:41.508Z,54.55
2023-12-27T23:02:08.487Z,54.07
2023-12-27T23:04:35.350Z,54.31
2023-12-27T23:07:02.217Z,54.67
2023-12-27T23:09:28.991Z,54.80
2023-12-27T23:11:55.738Z,54.83
2023-12-27T23:14:22.582Z,54.46
2023-12-27T23:16:50.689Z,55.00
2023-12-27T23:19:17.656Z,55.40
2023-12-27T23:21:44.470Z,56.00
2023-12-27T23:24:11.244Z,57.03
2023-12-27T23:26:37.980Z,57.50
2023-12-27T23:29:04.748Z,57.27
2023-12-27T23:31:31.731Z,57.86
2023-12-27T23:34:00.112Z,57.35
2023-12-27T23:36:26.896Z,58.02
2023-12-27T23:38:53.725Z,57.89
2023-12-27T23:41:20.430Z,58.27
2023-12-27T23:43:47.142Z,57.83
2023-12-27T23:46:13.813Z,57.23
2023-12-27T23:48:40.667Z,56.79
2023-12-27T23:51:08.844Z,56.58
2023-12-27T23:53:35.631Z,56.36
2023-12-27T23:56:02.354Z,56.78
2023-12-27T23:58:29.066Z,56.96
